sensor_id;sensor_type;location;lat;lon;timestamp;P1;durP1;ratioP1;P2;durP2;ratioP2
76749;SDS011;66447;35.844;14.468;2023-04-24T00:03:07;13.68;;;12.23;;
76749;SDS011;66447;35.844;14.468;2023-04-24T00:18:08;13.88;;;11.02;;
76749;SDS011;66447;35.844;14.468;2023-04-24T00:33:10;14.05;;;11.50;;
76749;SDS011;66447;35.844;14.468;2023-04-24T00:48:12;15.10;;;13.10;;
76749;SDS011;66447;35.844;14.468;2023-04-24T01:03:15;14.20;;;11.88;;
76749;SDS011;66447;35.844;14.468;2023-04-24T01:18:16;11.27;;;9.88;;
76749;SDS011;66447;35.844;14.468;2023-04-24T01:33:18;12.43;;;11.13;;
76749;SDS011;66447;35.844;14.468;2023-04-24T01:48:21;14.10;;;11.63;;
76749;SDS011;66447;35.844;14.468;2023-04-24T02:03:24;13.77;;;11.02;;
76749;SDS011;66447;35.844;14.468;2023-04-24T02:18:26;15.98;;;11.20;;
76749;SDS011;66447;35.844;14.468;2023-04-24T02:33:28;17.00;;;12.13;;
76749;SDS011;66447;35.844;14.468;2023-04-24T03:03:30;18.33;;;15.70;;
76749;SDS011;66447;35.844;14.468;2023-04-24T03:18:32;17.95;;;12.75;;
76749;SDS011;66447;35.844;14.468;2023-04-24T03:33:34;23.90;;;21.13;;
76749;SDS011;66447;35.844;14.468;2023-04-24T03:48:38;18.58;;;15.05;;
76749;SDS011;66447;35.844;14.468;2023-04-24T04:03:40;22.40;;;16.83;;
76749;SDS011;66447;35.844;14.468;2023-04-24T04:18:42;24.17;;;17.13;;
76749;SDS011;66447;35.844;14.468;2023-04-24T04:33:44;26.13;;;17.20;;
76749;SDS011;66447;35.844;14.468;2023-04-24T04:48:46;21.42;;;16.63;;
76749;SDS011;66447;35.844;14.468;2023-04-24T05:03:48;13.73;;;11.43;;
76749;SDS011;66447;35.844;14.468;2023-04-24T05:18:49;12.90;;;10.52;;
76749;SDS011;66447;35.844;14.468;2023-04-24T05:33:51;12.70;;;10.10;;
76749;SDS011;66447;35.844;14.468;2023-04-24T05:48:53;11.35;;;9.80;;
76749;SDS011;66447;35.844;14.468;2023-04-24T06:03:55;10.65;;;6.88;;
76749;SDS011;66447;35.844;14.468;2023-04-24T06:18:57;9.40;;;6.40;;
76749;SDS011;66447;35.844;14.468;2023-04-24T06:34:00;8.07;;;5.70;;
76749;SDS011;66447;35.844;14.468;2023-04-24T06:49:02;6.57;;;5.03;;
76749;SDS011;66447;35.844;14.468;2023-04-24T07:04:03;5.30;;;4.80;;
76749;SDS011;66447;35.844;14.468;2023-04-24T07:19:05;5.75;;;5.05;;
76749;SDS011;66447;35.844;14.468;2023-04-24T07:34:07;11.85;;;5.47;;
76749;SDS011;66447;35.844;14.468;2023-04-24T07:49:09;10.90;;;5.50;;
76749;SDS011;66447;35.844;14.468;2023-04-24T08:04:11;6.35;;;5.00;;
76749;SDS011;66447;35.844;14.468;2023-04-24T08:19:13;6.55;;;5.00;;
76749;SDS011;66447;35.844;14.468;2023-04-24T08:34:14;7.35;;;5.00;;
76749;SDS011;66447;35.844;14.468;2023-04-24T08:49:16;8.73;;;4.97;;
76749;SDS011;66447;35.844;14.468;2023-04-24T09:04:18;8.40;;;4.93;;
76749;SDS011;66447;35.844;14.468;2023-04-24T09:19:22;6.20;;;4.72;;
76749;SDS011;66447;35.844;14.468;2023-04-24T09:34:25;7.47;;;4.60;;
76749;SDS011;66447;35.844;14.468;2023-04-24T09:49:28;6.20;;;4.40;;
76749;SDS011;66447;35.844;14.468;2023-04-24T10:04:31;11.25;;;5.82;;
76749;SDS011;66447;35.844;14.468;2023-04-24T10:19:32;8.07;;;4.97;;
76749;SDS011;66447;35.844;14.468;2023-04-24T10:34:36;7.35;;;5.00;;
76749;SDS011;66447;35.844;14.468;2023-04-24T10:49:38;7.45;;;4.68;;
76749;SDS011;66447;35.844;14.468;2023-04-24T11:04:40;7.68;;;4.15;;
76749;SDS011;66447;35.844;14.468;2023-04-24T11:19:49;7.72;;;4.70;;
76749;SDS011;66447;35.844;14.468;2023-04-24T11:34:52;6.13;;;4.15;;
76749;SDS011;66447;35.844;14.468;2023-04-24T11:49:56;7.03;;;4.70;;
76749;SDS011;66447;35.844;14.468;2023-04-24T12:04:58;6.50;;;4.60;;
76749;SDS011;66447;35.844;14.468;2023-04-24T12:20:01;8.02;;;5.38;;
76749;SDS011;66447;35.844;14.468;2023-04-24T12:35:06;6.93;;;4.65;;
76749;SDS011;66447;35.844;14.468;2023-04-24T12:50:09;10.07;;;5.50;;
76749;SDS011;66447;35.844;14.468;2023-04-24T13:05:13;8.07;;;5.40;;
76749;SDS011;66447;35.844;14.468;2023-04-24T13:20:15;7.65;;;4.47;;
76749;SDS011;66447;35.844;14.468;2023-04-24T13:35:17;6.88;;;5.35;;
76749;SDS011;66447;35.844;14.468;2023-04-24T13:50:19;9.10;;;5.10;;
76749;SDS011;66447;35.844;14.468;2023-04-24T14:05:21;6.72;;;4.47;;
76749;SDS011;66447;35.844;14.468;2023-04-24T14:20:23;6.47;;;4.90;;
76749;SDS011;66447;35.844;14.468;2023-04-24T14:35:24;7.65;;;4.88;;
76749;SDS011;66447;35.844;14.468;2023-04-24T14:50:26;8.07;;;4.85;;
76749;SDS011;66447;35.844;14.468;2023-04-24T15:05:28;11.27;;;4.85;;
76749;SDS011;66447;35.844;14.468;2023-04-24T15:20:30;9.00;;;5.18;;
76749;SDS011;66447;35.844;14.468;2023-04-24T15:35:33;7.32;;;5.13;;
76749;SDS011;66447;35.844;14.468;2023-04-24T15:50:35;8.18;;;5.15;;
76749;SDS011;66447;35.844;14.468;2023-04-24T16:05:36;7.65;;;5.15;;
76749;SDS011;66447;35.844;14.468;2023-04-24T16:20:38;12.02;;;5.72;;
76749;SDS011;66447;35.844;14.468;2023-04-24T16:35:40;9.77;;;6.75;;
76749;SDS011;66447;35.844;14.468;2023-04-24T16:50:42;11.55;;;7.35;;
76749;SDS011;66447;35.844;14.468;2023-04-24T17:05:45;8.45;;;6.47;;
76749;SDS011;66447;35.844;14.468;2023-04-24T17:20:47;17.25;;;8.10;;
76749;SDS011;66447;35.844;14.468;2023-04-24T17:35:48;12.77;;;8.60;;
76749;SDS011;66447;35.844;14.468;2023-04-24T17:50:50;16.15;;;9.63;;
76749;SDS011;66447;35.844;14.468;2023-04-24T18:05:52;11.70;;;9.55;;
76749;SDS011;66447;35.844;14.468;2023-04-24T18:20:54;18.42;;;10.70;;
76749;SDS011;66447;35.844;14.468;2023-04-24T18:35:55;19.27;;;11.60;;
76749;SDS011;66447;35.844;14.468;2023-04-24T18:50:59;23.75;;;10.88;;
76749;SDS011;66447;35.844;14.468;2023-04-24T19:06:00;19.05;;;11.50;;
76749;SDS011;66447;35.844;14.468;2023-04-24T19:21:02;19.83;;;11.32;;
76749;SDS011;66447;35.844;14.468;2023-04-24T19:36:03;23.63;;;12.02;;
76749;SDS011;66447;35.844;14.468;2023-04-24T19:51:05;20.67;;;12.43;;
76749;SDS011;66447;35.844;14.468;2023-04-24T20:06:06;23.70;;;13.85;;
76749;SDS011;66447;35.844;14.468;2023-04-24T20:21:08;30.23;;;15.88;;
76749;SDS011;66447;35.844;14.468;2023-04-24T20:36:10;22.73;;;14.40;;
76749;SDS011;66447;35.844;14.468;2023-04-24T20:51:12;27.95;;;13.30;;
76749;SDS011;66447;35.844;14.468;2023-04-24T21:06:13;25.13;;;13.68;;
76749;SDS011;66447;35.844;14.468;2023-04-24T21:21:16;23.60;;;13.38;;
76749;SDS011;66447;35.844;14.468;2023-04-24T21:36:17;28.13;;;14.27;;
76749;SDS011;66447;35.844;14.468;2023-04-24T21:51:19;19.95;;;12.10;;
76749;SDS011;66447;35.844;14.468;2023-04-24T22:06:20;17.80;;;11.13;;
76749;SDS011;66447;35.844;14.468;2023-04-24T22:21:22;23.10;;;11.10;;
76749;SDS011;66447;35.844;14.468;2023-04-24T22:36:23;18.25;;;9.65;;
76749;SDS011;66447;35.844;14.468;2023-04-24T22:51:26;10.68;;;7.60;;
76749;SDS011;66447;35.844;14.468;2023-04-24T23:06:28;11.18;;;6.00;;
76749;SDS011;66447;35.844;14.468;2023-04-24T23:21:30;9.57;;;6.05;;
76749;SDS011;66447;35.844;14.468;2023-04-24T23:36:32;10.93;;;6.00;;
76749;SDS011;66447;35.844;14.468;2023-04-24T23:51:34;13.77;;;7.57;;
